Latest Coastal Weather Observations for Cape Ferguson

IDQ60701

Issued at 11:15 pm EST Saturday 26 July 2014 (issued every 10 minutes, with the page automatically refreshed every 10 minutes)

About coastal observations | Map of coastal stations | Coastal observations for QLD | Marine services | Other Formats
Station Details ID: 032182 Name: CAPE FERGUSON NTC AWS Lat: -19.28 Lon: 147.06 Height: 0.0 m
Data from the previous 72 hours. | See also: Recent months for locations in Queensland
Date/Time
EST
Temp

°C
Wind Pressure Rain
since 9am
mm
Weather Cloud Vis
km
Sea
Height
m
Swell
Dir
 
Speed
knots
Gust
knots
hPa Trend Height
m
Period
s
Dir
26/11:00pm 21.1 WNW 2 3 1022.5 - - - - - - - - -
26/10:30pm 20.8 W 3 4 1022.8 - - - - - - - - -
26/10:00pm 21.1 W 4 5 1023.0 - - - - - - - - -
26/09:30pm 21.6 SSW 2 3 1022.7 - - - - - - - - -
26/09:00pm 21.6 S 5 6 1022.9 - - - - - - - - -
26/08:30pm 22.1 ESE 6 8 1022.8 - - - - - - - - -
26/08:00pm 22.1 ESE 6 8 1022.5 - - - - - - - - -
26/07:30pm 22.2 E 8 10 1022.4 - - - - - - - - -
26/07:00pm 22.1 E 9 10 1022.1 - - - - - - - - -
26/06:30pm 22.2 E 10 12 1021.8 - - - - - - - - -
26/06:00pm 22.1 E 10 12 1021.4 - - - - - - - - -
26/05:30pm 22.1 E 11 13 1021.1 - - - - - - - - -
26/05:00pm 22.1 E 10 12 1020.7 - - - - - - - - -
26/04:30pm 22.1 E 10 12 1020.6 - - - - - - - - -
26/04:00pm 22.0 E 11 12 1020.7 - - - - - - - - -
26/03:30pm 22.1 E 12 15 1020.6 - - - - - - - - -
26/03:00pm 22.0 E 12 15 1020.7 - - - - - - - - -
26/02:30pm 22.1 E 11 13 1020.7 - - - - - - - - -
26/02:00pm 22.0 E 11 13 1021.1 - - - - - - - - -
26/01:30pm 21.9 E 10 12 1021.4 - - - - - - - - -
26/01:00pm 21.9 E 8 9 1021.8 - - - - - - - - -
26/12:30pm 21.8 ESE 6 8 1022.3 - - - - - - - - -
26/12:00pm 21.7 E 8 10 1022.7 - - - - - - - - -
26/11:30am 21.5 ESE 5 7 1023.1 - - - - - - - - -
26/11:00am 21.4 ESE 6 7 1023.5 - - - - - - - - -
26/10:30am 21.1 SE 7 9 1023.8 - - - - - - - - -
26/10:00am 20.9 SSE 9 11 1023.9 - - - - - - - - -
26/09:30am 20.7 SSE 9 11 1023.9 - - - - - - - - -
26/09:00am 20.4 SSE 8 9 1023.7 - - - - - - - - -
26/08:30am 20.3 SSE 8 10 1023.6 - - - - - - - - -
26/08:00am 20.2 SSE 8 10 1023.4 - - - - - - - - -
26/07:30am 20.0 SSE 10 12 1023.1 - - - - - - - - -
26/07:00am 20.1 SSE 9 10 1022.7 - - - - - - - - -
26/06:30am 20.2 SSE 10 12 1022.5 - - - - - - - - -
26/06:00am 20.0 SSE 9 11 1022.2 - - - - - - - - -
26/05:30am 20.3 SE 9 12 1021.9 - - - - - - - - -
26/05:00am 20.2 SSE 8 10 1022.0 - - - - - - - - -
26/04:30am 20.5 SSE 8 10 1021.9 - - - - - - - - -
26/04:00am 20.5 SE 9 11 1021.8 - - - - - - - - -
26/03:30am 20.4 SSE 8 10 1021.7 - - - - - - - - -
26/03:00am 20.6 SE 8 10 1021.8 - - - - - - - - -
26/02:30am 20.6 SE 9 12 1022.0 - - - - - - - - -
26/02:00am 20.7 SSE 9 11 1022.0 - - - - - - - - -
26/01:30am 20.7 SSE 10 12 1022.4 - - - - - - - - -
26/01:00am 20.9 SSE 7 9 1022.8 - - - - - - - - -
26/12:30am 21.1 SSE 8 10 1023.0 - - - - - - - - -
26/12:00am 21.1 SSE 9 12 1023.2 - - - - - - - - -
 
Date/Time
EST
Temp

°C
Wind Pressure Rain
since 9am
mm
Weather Cloud Vis
km
Sea
Height
m
Swell
Dir
 
Speed
knots
Gust
knots
hPa Trend Height
m
Period
s
Dir
25/11:30pm 21.3 SE 7 9 1023.2 - - - - - - - - -
25/11:00pm 21.5 ESE 9 12 1023.3 - - - - - - - - -
25/10:30pm 21.7 ESE 12 15 1023.6 - - - - - - - - -
25/10:00pm 21.9 ESE 12 15 1023.6 - - - - - - - - -
25/09:30pm 21.8 ESE 10 14 1023.4 - - - - - - - - -
25/09:00pm 21.9 ESE 9 12 1023.1 - - - - - - - - -
25/08:30pm 21.8 ESE 9 11 1022.9 - - - - - - - - -
25/08:00pm 21.9 ESE 11 13 1022.7 - - - - - - - - -
25/07:30pm 21.8 ESE 10 13 1022.2 - - - - - - - - -
25/07:00pm 21.9 E 12 15 1021.9 - - - - - - - - -
25/06:30pm 21.9 E 10 14 1021.5 - - - - - - - - -
25/06:00pm 21.9 E 9 12 1021.0 - - - - - - - - -
25/05:30pm 21.8 E 11 14 1020.8 - - - - - - - - -
25/05:00pm 21.8 E 12 14 1020.6 - - - - - - - - -
25/04:30pm 21.8 E 13 15 1020.3 - - - - - - - - -
25/04:00pm 21.7 E 12 14 1020.0 - - - - - - - - -
25/03:30pm 21.7 E 13 15 1020.0 - - - - - - - - -
25/03:00pm 21.6 ESE 14 16 1019.9 - - - - - - - - -
25/02:30pm 21.6 ESE 13 16 1020.0 - - - - - - - - -
25/02:00pm 21.5 ESE 14 17 1020.2 - - - - - - - - -
25/01:30pm 21.5 ESE 12 15 1020.5 - - - - - - - - -
25/01:00pm 21.4 ESE 8 11 1020.8 - - - - - - - - -
25/12:30pm 21.5 ESE 10 14 1021.3 - - - - - - - - -
25/12:00pm 21.5 ESE 9 13 1021.7 - - - - - - - - -
25/11:30am 21.6 ESE 9 12 1022.1 - - - - - - - - -
25/11:00am 21.6 ESE 10 13 1022.3 - - - - - - - - -
25/10:30am 21.5 SE 10 12 1022.4 - - - - - - - - -
25/10:00am 21.3 SE 11 13 1022.4 - - - - - - - - -
25/09:30am 20.8 SE 10 12 1022.4 - - - - - - - - -
25/09:00am 20.5 SE 10 12 1022.2 - - - - - - - - -
25/08:30am 20.5 SE 10 12 1021.8 - - - - - - - - -
25/08:00am 20.4 SE 10 13 1021.4 - - - - - - - - -
25/07:30am 20.4 SE 10 13 1020.8 - - - - - - - - -
25/07:00am 20.3 SE 11 13 1020.3 - - - - - - - - -
25/06:30am 20.3 SSE 10 14 1020.1 - - - - - - - - -
25/06:00am 20.2 SE 10 11 1019.7 - - - - - - - - -
25/05:30am 20.2 SE 11 13 1019.5 - - - - - - - - -
25/05:00am 20.1 SE 12 15 1019.3 - - - - - - - - -
25/04:30am 19.9 SSE 11 14 1019.0 - - - - - - - - -
25/04:00am 20.1 SSE 11 13 1018.8 - - - - - - - - -
25/03:30am 20.0 SE 11 15 1019.1 - - - - - - - - -
25/03:00am 19.9 SE 10 13 1019.0 - - - - - - - - -
25/02:30am 19.8 SE 11 15 1019.1 - - - - - - - - -
25/02:00am 20.3 SE 12 15 1019.1 - - - - - - - - -
25/01:30am 20.4 SE 12 14 1019.4 - - - - - - - - -
25/01:00am 20.3 SE 11 14 1019.4 - - - - - - - - -
25/12:30am 20.6 SE 11 14 1019.6 - - - - - - - - -
25/12:00am 20.7 SE 10 12 1019.8 - - - - - - - - -
 
Date/Time
EST
Temp

°C
Wind Pressure Rain
since 9am
mm
Weather Cloud Vis
km
Sea
Height
m
Swell
Dir
 
Speed
knots
Gust
knots
hPa Trend Height
m
Period
s
Dir
24/11:30pm 20.4 S 7 9 1019.7 - - - - - - - - -
24/11:00pm 19.9 S 6 7 1020.0 - - - - - - - - -
24/10:30pm 20.0 SSE 6 9 1020.2 - - - - - - - - -
24/10:00pm 20.4 S 5 7 1020.1 - - - - - - - - -
24/09:30pm 20.4 S 3 6 1020.0 - - - - - - - - -
24/09:00pm 20.1 WSW 1 4 1019.7 - - - - - - - - -
24/08:30pm 19.9 W 3 5 1019.5 - - - - - - - - -
24/08:00pm 19.6 S 3 5 1019.3 - - - - - - - - -
24/07:30pm 20.0 NNW 2 3 1019.0 - - - - - - - - -
24/07:00pm 19.1 NNW 3 6 1018.7 - - - - - - - - -
24/06:30pm 18.9 S 2 3 1018.4 - - - - - - - - -
24/06:00pm 19.1 E 5 8 1018.0 - - - - - - - - -
24/05:30pm 19.6 N 1 2 1017.7 - - - - - - - - -
24/05:00pm 19.5 SE 3 4 1017.3 - - - - - - - - -
24/04:30pm 19.5 ESE 5 6 1017.1 - - - - - - - - -
24/04:00pm 19.7 ESE 8 9 1017.3 - - - - - - - - -
24/03:30pm 19.6 SE 8 10 1017.1 - - - - - - - - -
24/03:00pm 20.7 ESE 8 11 1017.2 - - - - - - - - -
24/02:30pm 20.1 SE 6 9 1017.0 - - - - - - - - -
24/02:00pm 20.7 ESE 12 16 1017.4 - - - - - - - - -
24/01:30pm 21.1 ESE 9 10 1017.2 - - - - - - - - -
24/01:00pm 21.0 ESE 9 11 1017.4 - - - - - - - - -
24/12:30pm 20.9 ESE 8 10 1017.7 - - - - - - - - -
24/12:00pm 20.9 ESE 8 11 1018.2 - - - - - - - - -
24/11:30am 20.9 ESE 7 10 1018.6 - - - - - - - - -
24/11:00am 20.9 SE 6 8 1018.9 - - - - - - - - -
24/10:30am 20.4 SE 9 11 1019.1 - - - - - - - - -
24/10:00am 19.9 SSE 8 10 1019.0 - - - - - - - - -
24/09:30am 19.6 SSE 9 12 1018.8 - - - - - - - - -
24/09:00am 19.2 SSE 11 13 1018.8 - - - - - - - - -
24/08:30am 18.8 S 9 13 1018.7 - - - - - - - - -
24/08:00am 18.6 S 3 8 1018.3 - - - - - - - - -
24/07:30am 18.1 S 2 4 1018.2 - - - - - - - - -
24/07:00am 17.9 W 3 5 1017.8 - - - - - - - - -
24/06:30am 18.0 SW 3 7 1017.6 - - - - - - - - -
24/06:00am 18.4 S 7 8 1017.4 - - - - - - - - -
24/05:30am 18.5 S 7 9 1017.0 - - - - - - - - -
24/05:00am 18.5 S 7 10 1016.9 - - - - - - - - -
24/04:30am 18.7 S 7 9 1016.8 - - - - - - - - -
24/04:00am 18.6 S 6 8 1016.7 - - - - - - - - -
24/03:30am 18.8 SSE 7 9 1016.8 - - - - - - - - -
24/03:00am 19.2 SSE 6 9 1017.1 - - - - - - - - -
24/02:30am 19.4 S 8 9 1017.4 - - - - - - - - -
24/02:00am 19.4 SSE 7 9 1017.5 - - - - - - - - -
24/01:30am 19.6 SSE 6 7 1017.7 - - - - - - - - -
24/01:00am 19.9 SSE 5 7 1017.8 - - - - - - - - -
24/12:30am 20.0 SSE 6 7 1018.1 - - - - - - - - -
24/12:00am 20.1 SSE 6 7 1018.2 - - - - - - - - -
 
Date/Time
EST
Temp

°C
Wind Pressure Rain
since 9am
mm
Weather Cloud Vis
km
Sea
Height
m
Swell
Dir
 
Speed
knots
Gust
knots
hPa Trend Height
m
Period
s
Dir
23/11:30pm 21.2 E 10 12 1018.3 - - - - - - - - -

Other Formats:

Comma delimited format used in spreadsheet applications
http://www.bom.gov.au/fwo/IDQ60701/IDQ60701.94297.axf

JavaScript Object Notation format (JSON) in row-major order
http://www.bom.gov.au/fwo/IDQ60701/IDQ60701.94297.json